createdAt,value
2023-03-27T00:01:14.279Z,6.20
2023-03-27T00:03:44.932Z,6.10
2023-03-27T00:06:16.400Z,6.10
2023-03-27T00:08:47.903Z,6.10
2023-03-27T00:11:18.537Z,6.10
2023-03-27T00:13:50.075Z,6.00
2023-03-27T00:16:24.420Z,6.00
2023-03-27T00:18:53.408Z,5.90
2023-03-27T00:21:24.260Z,5.80
2023-03-27T00:24:02.909Z,5.80
2023-03-27T00:26:32.503Z,5.70
2023-03-27T00:29:00.969Z,5.60
2023-03-27T00:31:34.159Z,5.50
2023-03-27T00:34:03.222Z,5.50
2023-03-27T00:36:31.506Z,5.50
2023-03-27T00:39:01.200Z,5.50
2023-03-27T00:41:29.846Z,5.50
2023-03-27T00:43:58.288Z,5.50
2023-03-27T00:46:35.610Z,5.50
2023-03-27T00:49:06.399Z,5.50
2023-03-27T00:51:36.757Z,5.40
2023-03-27T00:54:07.589Z,5.40
2023-03-27T00:56:38.750Z,5.40
2023-03-27T00:59:10.466Z,5.50
2023-03-27T01:01:40.466Z,5.50
2023-03-27T01:04:19.951Z,5.50
2023-03-27T01:06:51.539Z,5.50
2023-03-27T01:09:27.265Z,5.50
2023-03-27T01:12:04.000Z,5.40
2023-03-27T01:17:27.914Z,5.30
2023-03-27T01:20:14.051Z,5.10
2023-03-27T01:23:02.152Z,5.10
2023-03-27T01:25:48.295Z,5.00
2023-03-27T01:28:32.522Z,4.80
2023-03-27T01:31:10.181Z,4.70
2023-03-27T01:33:59.308Z,4.70
2023-03-27T01:36:47.876Z,4.60
2023-03-27T01:39:29.247Z,4.40
2023-03-27T01:42:05.965Z,4.20
2023-03-27T01:44:45.396Z,4.10
2023-03-27T01:47:19.288Z,3.90
2023-03-27T01:49:59.065Z,3.80
2023-03-27T01:52:34.778Z,3.70
2023-03-27T01:55:13.983Z,3.60
2023-03-27T01:57:50.336Z,3.50
2023-03-27T02:00:22.610Z,3.40
2023-03-27T02:02:54.915Z,3.30
2023-03-27T02:05:35.353Z,3.30
2023-03-27T02:08:16.970Z,3.20
2023-03-27T02:10:51.386Z,3.20
2023-03-27T02:13:26.168Z,3.10
2023-03-27T02:15:58.417Z,3.10
2023-03-27T02:18:32.678Z,3.00
2023-03-27T02:21:02.739Z,3.00
2023-03-27T02:23:33.501Z,2.90
2023-03-27T02:26:05.285Z,2.90
2023-03-27T02:28:49.269Z,2.80
2023-03-27T02:31:32.497Z,2.80
2023-03-27T02:34:29.326Z,2.70
2023-03-27T02:37:09.637Z,2.70
2023-03-27T02:40:27.449Z,2.60
2023-03-27T02:43:09.848Z,2.50
2023-03-27T02:45:46.491Z,2.50
2023-03-27T02:48:29.719Z,2.50
2023-03-27T02:51:03.632Z,2.40
2023-03-27T02:53:59.383Z,2.40
2023-03-27T02:59:36.918Z,2.30
2023-03-27T03:02:11.405Z,2.30
2023-03-27T03:05:10.484Z,2.30
2023-03-27T03:07:41.755Z,2.30
2023-03-27T03:10:12.884Z,2.20
2023-03-27T03:12:41.610Z,2.10
2023-03-27T03:15:12.043Z,2.10
2023-03-27T03:17:42.932Z,2.00
2023-03-27T03:20:16.777Z,2.00
2023-03-27T03:22:52.360Z,1.90
2023-03-27T03:25:29.464Z,1.90
2023-03-27T03:27:59.797Z,1.80
2023-03-27T03:30:49.714Z,1.90
2023-03-27T03:33:37.403Z,1.90
2023-03-27T03:36:11.702Z,1.80
2023-03-27T03:38:43.084Z,1.90
2023-03-27T03:41:17.120Z,1.90
2023-03-27T03:43:47.459Z,1.90
2023-03-27T03:46:18.705Z,1.80
2023-03-27T03:48:48.131Z,1.80
2023-03-27T03:51:20.113Z,1.80
2023-03-27T03:54:14.221Z,1.70
2023-03-27T03:56:46.043Z,1.70
2023-03-27T03:59:17.504Z,1.70
2023-03-27T04:02:12.139Z,1.70
2023-03-27T04:04:46.111Z,1.70
2023-03-27T04:07:19.647Z,1.70
2023-03-27T04:09:48.864Z,1.70
2023-03-27T04:15:36.578Z,1.60
2023-03-27T04:18:22.259Z,1.60
2023-03-27T04:20:54.613Z,1.50
2023-03-27T04:23:30.317Z,1.60
2023-03-27T04:26:03.334Z,1.60
2023-03-27T04:28:59.562Z,1.60
2023-03-27T04:31:51.922Z,1.50
2023-03-27T04:34:45.152Z,1.40
2023-03-27T04:37:33.289Z,1.40
2023-03-27T04:40:19.242Z,1.40
2023-03-27T04:42:47.725Z,1.40
2023-03-27T04:45:28.858Z,1.40
2023-03-27T04:48:00.746Z,1.50
2023-03-27T04:50:31.457Z,1.50
2023-03-27T04:53:02.259Z,1.50
2023-03-27T04:55:39.289Z,1.40
2023-03-27T04:58:10.942Z,1.40
2023-03-27T05:00:45.397Z,1.40
2023-03-27T05:03:33.123Z,1.40
2023-03-27T05:06:32.195Z,1.40
2023-03-27T05:09:02.492Z,1.40
2023-03-27T05:11:36.685Z,1.40
2023-03-27T05:14:05.206Z,1.50
2023-03-27T05:16:36.252Z,1.50
2023-03-27T05:19:06.887Z,1.50
2023-03-27T05:21:43.996Z,1.50
2023-03-27T05:24:13.799Z,1.50
2023-03-27T05:26:42.522Z,1.50
2023-03-27T05:29:10.996Z,1.50
2023-03-27T05:31:43.956Z,1.60
2023-03-27T05:34:31.096Z,1.80
2023-03-27T05:37:05.900Z,2.00
2023-03-27T05:39:41.703Z,2.20
2023-03-27T05:42:11.286Z,2.60
2023-03-27T05:44:43.014Z,3.10
2023-03-27T05:47:11.725Z,3.50
2023-03-27T05:49:40.596Z,4.00
2023-03-27T05:52:16.490Z,4.50
2023-03-27T05:54:44.864Z,5.00
2023-03-27T05:57:15.538Z,5.50
2023-03-27T05:59:44.601Z,5.90
2023-03-27T06:02:25.742Z,6.40
2023-03-27T06:05:06.103Z,6.90
2023-03-27T06:07:43.668Z,7.30
2023-03-27T06:10:14.354Z,7.60
2023-03-27T06:13:03.044Z,7.70
2023-03-27T06:15:42.068Z,8.20
2023-03-27T06:18:34.042Z,8.60
2023-03-27T06:21:02.284Z,8.60
2023-03-27T06:23:32.957Z,8.70
2023-03-27T06:26:01.297Z,9.00
2023-03-27T06:28:31.958Z,9.20
2023-03-27T06:31:00.605Z,9.50
2023-03-27T06:33:35.434Z,9.50
2023-03-27T06:36:09.293Z,9.50
2023-03-27T06:38:42.827Z,10.00
2023-03-27T06:41:12.318Z,10.90
2023-03-27T06:43:59.459Z,11.60
2023-03-27T06:46:53.304Z,11.10
2023-03-27T06:49:47.989Z,11.00
2023-03-27T06:52:22.675Z,11.10
2023-03-27T06:54:53.021Z,10.60
2023-03-27T06:57:22.254Z,10.30
2023-03-27T07:00:13.219Z,10.80
2023-03-27T07:03:11.012Z,11.20
2023-03-27T07:05:50.424Z,11.30
2023-03-27T07:08:24.753Z,11.40
2023-03-27T07:11:11.672Z,10.90
2023-03-27T07:13:46.820Z,10.20
2023-03-27T07:16:24.844Z,10.60
2023-03-27T07:18:53.926Z,10.90
2023-03-27T07:21:22.791Z,11.20
2023-03-27T07:23:51.953Z,11.50
2023-03-27T07:26:32.438Z,11.80
2023-03-27T07:29:04.042Z,12.10
2023-03-27T07:31:53.018Z,12.30
2023-03-27T07:34:20.922Z,12.30
2023-03-27T07:37:08.306Z,12.20
2023-03-27T07:39:39.822Z,12.20
2023-03-27T07:42:10.207Z,12.30
2023-03-27T07:44:51.167Z,12.80
2023-03-27T07:47:19.892Z,13.40
2023-03-27T07:49:48.344Z,13.50
2023-03-27T07:52:22.330Z,13.50
2023-03-27T07:54:59.575Z,13.90
2023-03-27T07:57:55.396Z,15.00
2023-03-27T08:00:30.406Z,16.10
2023-03-27T08:03:11.941Z,17.00
2023-03-27T08:05:45.587Z,17.30
2023-03-27T08:08:17.043Z,17.60
2023-03-27T08:10:58.315Z,18.20
2023-03-27T08:13:31.813Z,18.70
2023-03-27T08:16:05.061Z,19.20
2023-03-27T08:18:33.708Z,18.80
2023-03-27T08:21:03.298Z,19.20
2023-03-27T08:23:33.919Z,18.90
2023-03-27T08:26:21.547Z,19.70
2023-03-27T08:28:58.992Z,19.70
2023-03-27T08:31:31.905Z,18.90
2023-03-27T08:34:02.790Z,17.10
2023-03-27T08:36:51.491Z,15.40
2023-03-27T08:39:23.008Z,14.80
2023-03-27T08:42:06.155Z,15.50
2023-03-27T08:44:38.631Z,16.30
2023-03-27T08:47:13.199Z,15.60
2023-03-27T08:49:51.063Z,14.80
2023-03-27T08:52:41.594Z,14.80
2023-03-27T08:55:20.501Z,15.60
2023-03-27T08:57:59.730Z,16.90
2023-03-27T09:00:32.136Z,18.10
2023-03-27T09:03:22.540Z,18.90
2023-03-27T09:05:55.846Z,18.40
2023-03-27T09:08:29.457Z,17.10
2023-03-27T09:11:05.342Z,15.10
2023-03-27T09:13:45.484Z,13.70
2023-03-27T09:16:18.952Z,12.50
2023-03-27T09:18:50.552Z,12.20
2023-03-27T09:21:29.146Z,14.30
2023-03-27T09:24:02.391Z,16.30
2023-03-27T09:27:13.648Z,18.80
2023-03-27T09:29:50.412Z,18.70
2023-03-27T09:32:51.683Z,17.10
2023-03-27T09:35:22.240Z,15.10
2023-03-27T09:37:57.034Z,15.00
2023-03-27T09:40:30.475Z,15.40
2023-03-27T09:43:04.426Z,16.60
2023-03-27T09:45:39.101Z,17.60
2023-03-27T09:48:14.404Z,18.10
2023-03-27T09:50:47.636Z,18.60
2023-03-27T09:53:58.046Z,17.80
2023-03-27T09:56:29.913Z,16.30
2023-03-27T09:58:59.242Z,15.20
2023-03-27T10:01:30.286Z,14.90
2023-03-27T10:04:22.023Z,15.40
2023-03-27T10:07:01.671Z,16.80
2023-03-27T10:10:04.240Z,18.40
2023-03-27T10:12:55.930Z,19.70
2023-03-27T10:15:33.960Z,20.90
2023-03-27T10:18:04.928Z,19.20
2023-03-27T10:20:35.227Z,17.00
2023-03-27T10:23:06.711Z,15.10
2023-03-27T10:25:38.415Z,14.40
2023-03-27T10:28:19.834Z,15.40
2023-03-27T10:31:28.406Z,15.60
2023-03-27T10:34:08.458Z,16.10
2023-03-27T10:37:21.237Z,16.10
2023-03-27T10:39:55.490Z,13.80
2023-03-27T10:42:34.473Z,12.10
2023-03-27T10:45:05.837Z,11.70
2023-03-27T10:47:35.999Z,12.80
2023-03-27T10:50:12.090Z,13.70
2023-03-27T10:52:51.917Z,13.80
2023-03-27T10:55:42.192Z,13.60
2023-03-27T10:58:25.731Z,13.80
2023-03-27T11:00:59.052Z,13.80
2023-03-27T11:03:31.685Z,14.50
2023-03-27T11:06:07.032Z,14.00
2023-03-27T11:08:44.737Z,13.00
2023-03-27T11:11:15.849Z,13.50
2023-03-27T11:13:49.842Z,14.80
2023-03-27T11:16:23.008Z,15.80
2023-03-27T11:19:34.139Z,16.20
2023-03-27T11:22:23.153Z,17.40
2023-03-27T11:24:58.565Z,17.90
2023-03-27T11:27:30.639Z,18.70
2023-03-27T11:30:04.844Z,19.90
2023-03-27T11:32:50.669Z,20.40
2023-03-27T11:35:21.994Z,21.80
2023-03-27T11:38:25.353Z,21.50
2023-03-27T11:40:58.322Z,20.00
2023-03-27T11:43:27.519Z,20.10
2023-03-27T11:46:03.470Z,20.30
2023-03-27T11:48:57.262Z,21.10
2023-03-27T11:51:30.906Z,21.20
2023-03-27T11:54:07.194Z,19.70
2023-03-27T11:57:02.503Z,20.20
2023-03-27T11:59:55.555Z,20.40
2023-03-27T12:02:31.970Z,18.80
2023-03-27T12:05:03.947Z,16.70
2023-03-27T12:07:50.255Z,15.10
2023-03-27T12:10:29.565Z,14.30
2023-03-27T12:13:41.283Z,14.30
2023-03-27T12:16:28.517Z,14.40
2023-03-27T12:19:13.792Z,14.10
2023-03-27T12:21:54.041Z,13.60
2023-03-27T12:24:29.588Z,14.40
2023-03-27T12:27:28.805Z,14.70
2023-03-27T12:30:28.089Z,14.90
2023-03-27T12:33:14.359Z,14.90
2023-03-27T12:35:47.058Z,15.00
2023-03-27T12:38:24.208Z,14.80
2023-03-27T12:41:03.060Z,14.20
2023-03-27T12:43:46.434Z,13.90
2023-03-27T12:46:36.666Z,13.50
2023-03-27T12:49:34.250Z,13.10
2023-03-27T12:52:10.647Z,12.80
2023-03-27T12:55:04.680Z,13.00
2023-03-27T12:57:53.182Z,12.80
2023-03-27T13:00:40.768Z,12.50
2023-03-27T13:03:19.912Z,12.40
2023-03-27T13:05:57.610Z,11.70
2023-03-27T13:08:40.110Z,11.20
2023-03-27T13:11:19.703Z,10.70
2023-03-27T13:14:10.074Z,10.00
2023-03-27T13:16:50.046Z,9.50
2023-03-27T13:19:37.061Z,9.50
2023-03-27T13:25:15.930Z,10.10
2023-03-27T13:27:53.099Z,10.60
2023-03-27T13:30:43.330Z,11.20
2023-03-27T13:33:40.416Z,12.20
2023-03-27T13:36:12.618Z,13.50
2023-03-27T13:39:04.314Z,14.60
2023-03-27T13:41:42.976Z,14.60
2023-03-27T13:44:35.569Z,14.30
2023-03-27T13:47:10.675Z,14.10
2023-03-27T13:49:46.117Z,13.80
2023-03-27T13:52:32.231Z,13.90
2023-03-27T13:55:11.040Z,14.30
2023-03-27T13:58:21.453Z,14.60
2023-03-27T14:01:21.397Z,15.40
2023-03-27T14:04:06.141Z,16.60
2023-03-27T14:06:56.312Z,17.90
2023-03-27T14:09:29.537Z,18.30
2023-03-27T14:12:31.337Z,18.80
2023-03-27T14:15:35.376Z,18.40
2023-03-27T14:18:36.496Z,18.50
2023-03-27T14:21:08.470Z,17.80
2023-03-27T14:23:48.918Z,17.10
2023-03-27T14:26:30.205Z,16.80
2023-03-27T14:29:01.855Z,15.10
2023-03-27T14:31:39.213Z,13.90
2023-03-27T14:34:25.238Z,12.90
2023-03-27T14:37:22.775Z,12.50
2023-03-27T14:39:55.069Z,11.60
2023-03-27T14:42:29.136Z,11.20
2023-03-27T14:45:11.179Z,10.80
2023-03-27T14:47:42.406Z,10.40
2023-03-27T14:50:14.748Z,9.70
2023-03-27T14:52:45.391Z,9.20
2023-03-27T14:55:18.753Z,9.30
2023-03-27T14:57:53.579Z,9.70
2023-03-27T15:00:30.810Z,10.40
2023-03-27T15:03:05.353Z,10.90
2023-03-27T15:05:34.009Z,11.40
2023-03-27T15:08:04.767Z,12.10
2023-03-27T15:11:11.756Z,13.00
2023-03-27T15:13:49.760Z,13.60
2023-03-27T15:16:28.089Z,13.30
2023-03-27T15:19:05.086Z,12.80
2023-03-27T15:21:45.382Z,12.20
2023-03-27T15:24:17.258Z,12.00
2023-03-27T15:26:46.140Z,11.50
2023-03-27T15:29:18.018Z,11.30
2023-03-27T15:31:49.237Z,11.20
2023-03-27T15:34:23.441Z,10.70
2023-03-27T15:36:56.956Z,10.40
2023-03-27T15:39:26.861Z,9.90
2023-03-27T15:41:58.201Z,9.50
2023-03-27T15:44:27.251Z,9.20
2023-03-27T15:46:59.016Z,9.10
2023-03-27T15:49:44.287Z,9.10
2023-03-27T15:52:31.350Z,9.40
2023-03-27T15:55:00.164Z,9.80
2023-03-27T15:57:30.896Z,10.20
2023-03-27T16:00:01.917Z,10.30
2023-03-27T16:02:41.136Z,10.40
2023-03-27T16:05:10.530Z,10.50
2023-03-27T16:07:46.481Z,10.50
2023-03-27T16:10:15.717Z,10.60
2023-03-27T16:12:50.945Z,11.00
2023-03-27T16:15:29.098Z,11.20
2023-03-27T16:17:58.392Z,11.30
2023-03-27T16:20:34.286Z,11.20
2023-03-27T16:23:04.784Z,11.20
2023-03-27T16:25:34.964Z,11.10
2023-03-27T16:28:04.029Z,11.10
2023-03-27T16:30:35.936Z,10.80
2023-03-27T16:33:05.320Z,10.50
2023-03-27T16:35:34.227Z,10.40
2023-03-27T16:38:05.072Z,10.50
2023-03-27T16:40:33.945Z,10.40
2023-03-27T16:43:02.948Z,10.40
2023-03-27T16:45:32.085Z,9.90
2023-03-27T16:48:00.893Z,9.50
2023-03-27T16:50:30.997Z,9.10
2023-03-27T16:52:59.618Z,8.90
2023-03-27T16:55:30.063Z,8.50
2023-03-27T16:57:58.612Z,8.30
2023-03-27T17:00:27.512Z,8.10
2023-03-27T17:02:56.189Z,7.80
2023-03-27T17:05:24.738Z,7.70
2023-03-27T17:07:53.286Z,7.60
2023-03-27T17:10:21.515Z,7.60
2023-03-27T17:12:51.733Z,7.50
2023-03-27T17:15:20.677Z,7.50
2023-03-27T17:17:50.263Z,7.50
2023-03-27T17:20:19.353Z,7.50
2023-03-27T17:22:48.332Z,7.40
2023-03-27T17:25:17.793Z,7.00
2023-03-27T17:27:46.121Z,6.60
2023-03-27T17:30:26.808Z,6.30
2023-03-27T17:33:03.408Z,6.10
2023-03-27T17:35:32.341Z,5.80
2023-03-27T17:38:01.079Z,5.60
2023-03-27T17:40:29.106Z,5.50
2023-03-27T17:42:57.460Z,5.30
2023-03-27T17:45:27.922Z,5.10
2023-03-27T17:47:56.974Z,5.10
2023-03-27T17:50:25.493Z,4.90
2023-03-27T17:52:54.113Z,4.80
2023-03-27T17:55:22.438Z,4.80
2023-03-27T17:58:05.963Z,4.70
2023-03-27T18:00:38.984Z,4.80
2023-03-27T18:03:09.057Z,4.80
2023-03-27T18:05:38.195Z,4.90
2023-03-27T18:08:07.401Z,5.00
2023-03-27T18:10:38.946Z,5.00
2023-03-27T18:13:07.592Z,5.00
2023-03-27T18:15:35.903Z,5.10
2023-03-27T18:18:06.416Z,5.10
2023-03-27T18:20:35.291Z,5.10
2023-03-27T18:23:04.168Z,5.00
2023-03-27T18:25:32.528Z,5.00
2023-03-27T18:28:02.260Z,5.00
2023-03-27T18:30:32.206Z,5.00
2023-03-27T18:33:00.957Z,5.00
2023-03-27T18:35:31.450Z,4.90
2023-03-27T18:38:00.060Z,4.90
2023-03-27T18:40:28.785Z,4.80
2023-03-27T18:42:57.116Z,4.70
2023-03-27T18:45:25.989Z,4.50
2023-03-27T18:47:54.069Z,4.40
2023-03-27T18:50:22.593Z,4.30
2023-03-27T18:52:52.671Z,4.20
2023-03-27T18:55:21.347Z,4.10
2023-03-27T18:57:50.241Z,4.00
2023-03-27T19:00:20.375Z,4.00
2023-03-27T19:02:49.281Z,3.90
2023-03-27T19:05:18.588Z,3.80
2023-03-27T19:07:47.031Z,3.80
2023-03-27T19:10:17.286Z,3.80
2023-03-27T19:12:59.084Z,3.80
2023-03-27T19:15:53.855Z,3.80
2023-03-27T19:18:42.271Z,3.80
2023-03-27T19:21:28.918Z,3.80
2023-03-27T19:24:10.004Z,3.90
2023-03-27T19:26:46.333Z,4.00
2023-03-27T19:29:14.643Z,4.10
2023-03-27T19:31:43.208Z,4.20
2023-03-27T19:34:11.480Z,4.30
2023-03-27T19:36:40.576Z,4.30
2023-03-27T19:39:09.135Z,4.40
2023-03-27T19:41:37.638Z,4.50
2023-03-27T19:44:08.470Z,4.50
2023-03-27T19:46:36.945Z,4.50
2023-03-27T19:49:05.543Z,4.60
2023-03-27T19:51:54.349Z,4.60
2023-03-27T19:54:22.963Z,4.60
2023-03-27T19:56:51.686Z,4.60
2023-03-27T19:59:30.229Z,4.60
2023-03-27T20:02:00.530Z,4.60
2023-03-27T20:04:29.026Z,4.60
2023-03-27T20:07:02.249Z,4.60
2023-03-27T20:09:30.614Z,4.60
2023-03-27T20:11:59.082Z,4.60
2023-03-27T20:14:31.655Z,4.50
2023-03-27T20:16:59.775Z,4.40
2023-03-27T20:19:30.914Z,4.40
2023-03-27T20:22:02.128Z,4.30
2023-03-27T20:24:30.997Z,4.20
2023-03-27T20:27:02.639Z,4.10
2023-03-27T20:29:32.688Z,4.00
2023-03-27T20:32:01.607Z,4.00
2023-03-27T20:34:30.196Z,3.90
2023-03-27T20:36:59.273Z,3.90
2023-03-27T20:39:51.028Z,3.80
2023-03-27T20:42:23.322Z,3.80
2023-03-27T20:44:58.373Z,3.70
2023-03-27T20:47:26.903Z,3.70
2023-03-27T20:49:59.176Z,3.60
2023-03-27T20:52:28.745Z,3.60
2023-03-27T20:54:57.123Z,3.50
2023-03-27T20:57:25.483Z,3.40
2023-03-27T20:59:55.471Z,3.40
2023-03-27T21:02:24.195Z,3.30
2023-03-27T21:04:54.932Z,3.20
2023-03-27T21:07:23.268Z,3.20
2023-03-27T21:09:54.517Z,3.10
2023-03-27T21:12:25.324Z,3.10
2023-03-27T21:14:55.032Z,3.10
2023-03-27T21:17:23.767Z,3.00
2023-03-27T21:19:52.452Z,3.00
2023-03-27T21:22:21.152Z,3.00
2023-03-27T21:24:49.961Z,2.90
2023-03-27T21:27:18.379Z,2.90
2023-03-27T21:29:46.657Z,2.90
2023-03-27T21:32:16.532Z,2.80
2023-03-27T21:34:44.941Z,2.80
2023-03-27T21:37:13.778Z,2.70
2023-03-27T21:39:41.788Z,2.70
2023-03-27T21:42:10.412Z,2.70
2023-03-27T21:44:38.607Z,2.60
2023-03-27T21:47:07.013Z,2.50
2023-03-27T21:49:37.750Z,2.50
2023-03-27T21:52:08.103Z,2.40
2023-03-27T21:54:36.634Z,2.30
2023-03-27T21:57:05.590Z,2.30
2023-03-27T21:59:34.428Z,2.20
2023-03-27T22:02:10.114Z,2.20
2023-03-27T22:04:40.140Z,2.10
2023-03-27T22:07:09.272Z,2.10
2023-03-27T22:09:39.162Z,2.00
2023-03-27T22:12:07.615Z,2.00
2023-03-27T22:14:39.769Z,2.00
2023-03-27T22:17:11.040Z,2.00
2023-03-27T22:20:02.232Z,2.00
2023-03-27T22:22:31.457Z,2.00
2023-03-27T22:25:01.887Z,2.00
2023-03-27T22:27:30.512Z,2.00
2023-03-27T22:29:58.635Z,2.00
2023-03-27T22:32:32.807Z,2.00
2023-03-27T22:35:05.007Z,1.90
2023-03-27T22:37:38.903Z,1.90
2023-03-27T22:40:10.834Z,1.90
2023-03-27T22:42:41.559Z,1.80
2023-03-27T22:45:14.989Z,1.80
2023-03-27T22:47:45.712Z,1.90
2023-03-27T22:50:18.429Z,1.90
2023-03-27T22:52:54.850Z,1.90
2023-03-27T22:55:29.813Z,1.90
2023-03-27T22:58:02.773Z,2.00
2023-03-27T23:00:35.385Z,2.00
2023-03-27T23:03:04.728Z,2.00
2023-03-27T23:05:38.386Z,2.00
2023-03-27T23:08:08.347Z,2.00
2023-03-27T23:10:48.241Z,1.90
2023-03-27T23:13:16.624Z,1.90
2023-03-27T23:15:52.854Z,1.80
2023-03-27T23:18:25.157Z,1.80
2023-03-27T23:20:56.583Z,1.70
2023-03-27T23:23:25.772Z,1.60
2023-03-27T23:25:57.684Z,1.60
2023-03-27T23:28:35.678Z,1.60
2023-03-27T23:31:05.375Z,1.60
2023-03-27T23:33:36.249Z,1.50
2023-03-27T23:36:25.275Z,1.50
2023-03-27T23:38:54.444Z,1.50
2023-03-27T23:41:24.943Z,1.40
2023-03-27T23:43:55.792Z,1.40
2023-03-27T23:46:27.820Z,1.30
2023-03-27T23:49:01.727Z,1.30
2023-03-27T23:51:35.472Z,1.30
2023-03-27T23:54:05.086Z,1.20
2023-03-27T23:56:37.187Z,1.20
2023-03-27T23:59:05.755Z,1.20
